sensor_id;sensor_type;location;lat;lon;timestamp;P1;durP1;ratioP1;P2;durP2;ratioP2
317;SDS011;146;53.448;10.228;2022-09-13T00:01:51;5.60;;;5.23;;
317;SDS011;146;53.448;10.228;2022-09-13T00:04:21;6.40;;;5.10;;
317;SDS011;146;53.448;10.228;2022-09-13T00:06:50;5.23;;;4.90;;
317;SDS011;146;53.448;10.228;2022-09-13T00:09:19;10.20;;;5.00;;
317;SDS011;146;53.448;10.228;2022-09-13T00:11:46;4.50;;;4.10;;
317;SDS011;146;53.448;10.228;2022-09-13T00:14:13;4.90;;;4.40;;
317;SDS011;146;53.448;10.228;2022-09-13T00:16:41;5.50;;;5.10;;
317;SDS011;146;53.448;10.228;2022-09-13T00:19:10;4.23;;;4.03;;
317;SDS011;146;53.448;10.228;2022-09-13T00:21:36;4.97;;;4.67;;
317;SDS011;146;53.448;10.228;2022-09-13T00:24:06;5.80;;;5.30;;
317;SDS011;146;53.448;10.228;2022-09-13T00:26:33;5.00;;;4.70;;
317;SDS011;146;53.448;10.228;2022-09-13T00:29:00;5.00;;;4.60;;
317;SDS011;146;53.448;10.228;2022-09-13T00:31:29;4.03;;;3.83;;
317;SDS011;146;53.448;10.228;2022-09-13T00:33:58;4.40;;;4.10;;
317;SDS011;146;53.448;10.228;2022-09-13T00:36:25;4.70;;;4.40;;
317;SDS011;146;53.448;10.228;2022-09-13T00:38:52;4.60;;;4.30;;
317;SDS011;146;53.448;10.228;2022-09-13T00:41:19;4.83;;;4.43;;
317;SDS011;146;53.448;10.228;2022-09-13T00:43:47;5.47;;;5.07;;
317;SDS011;146;53.448;10.228;2022-09-13T00:46:23;3.97;;;3.77;;
317;SDS011;146;53.448;10.228;2022-09-13T00:49:00;4.77;;;4.37;;
317;SDS011;146;53.448;10.228;2022-09-13T00:51:31;3.80;;;3.57;;
317;SDS011;146;53.448;10.228;2022-09-13T00:53:57;3.80;;;3.50;;
317;SDS011;146;53.448;10.228;2022-09-13T00:56:27;5.80;;;5.17;;
317;SDS011;146;53.448;10.228;2022-09-13T00:58:59;5.03;;;4.73;;
317;SDS011;146;53.448;10.228;2022-09-13T01:01:30;5.17;;;4.80;;
317;SDS011;146;53.448;10.228;2022-09-13T01:04:04;5.73;;;5.23;;
317;SDS011;146;53.448;10.228;2022-09-13T01:06:32;4.80;;;4.50;;
317;SDS011;146;53.448;10.228;2022-09-13T01:09:01;5.37;;;5.07;;
317;SDS011;146;53.448;10.228;2022-09-13T01:11:35;5.20;;;4.80;;
317;SDS011;146;53.448;10.228;2022-09-13T01:14:07;6.97;;;6.47;;
317;SDS011;146;53.448;10.228;2022-09-13T01:16:35;6.17;;;5.77;;
317;SDS011;146;53.448;10.228;2022-09-13T01:19:03;6.30;;;5.80;;
317;SDS011;146;53.448;10.228;2022-09-13T01:21:35;6.33;;;5.83;;
317;SDS011;146;53.448;10.228;2022-09-13T01:27:40;6.43;;;5.83;;
317;SDS011;146;53.448;10.228;2022-09-13T01:30:26;7.20;;;5.73;;
317;SDS011;146;53.448;10.228;2022-09-13T01:33:08;7.60;;;5.73;;
317;SDS011;146;53.448;10.228;2022-09-13T01:38:57;5.87;;;5.47;;
317;SDS011;146;53.448;10.228;2022-09-13T01:41:42;7.10;;;6.60;;
317;SDS011;146;53.448;10.228;2022-09-13T01:44:20;6.97;;;6.47;;
317;SDS011;146;53.448;10.228;2022-09-13T01:47:04;7.07;;;6.47;;
317;SDS011;146;53.448;10.228;2022-09-13T01:49:37;6.63;;;6.00;;
317;SDS011;146;53.448;10.228;2022-09-13T01:52:13;6.70;;;6.10;;
317;SDS011;146;53.448;10.228;2022-09-13T01:54:47;5.73;;;5.33;;
317;SDS011;146;53.448;10.228;2022-09-13T01:57:20;6.50;;;6.00;;
317;SDS011;146;53.448;10.228;2022-09-13T01:59:55;6.93;;;6.43;;
317;SDS011;146;53.448;10.228;2022-09-13T02:02:28;9.10;;;6.80;;
317;SDS011;146;53.448;10.228;2022-09-13T02:05:01;7.33;;;6.73;;
317;SDS011;146;53.448;10.228;2022-09-13T02:07:34;7.27;;;6.67;;
317;SDS011;146;53.448;10.228;2022-09-13T02:10:06;7.67;;;7.03;;
317;SDS011;146;53.448;10.228;2022-09-13T02:12:37;6.50;;;6.00;;
317;SDS011;146;53.448;10.228;2022-09-13T02:15:09;7.13;;;6.63;;
317;SDS011;146;53.448;10.228;2022-09-13T02:17:43;6.60;;;6.13;;
317;SDS011;146;53.448;10.228;2022-09-13T02:20:15;7.63;;;7.10;;
317;SDS011;146;53.448;10.228;2022-09-13T02:22:48;6.57;;;6.13;;
317;SDS011;146;53.448;10.228;2022-09-13T02:25:19;8.50;;;7.60;;
317;SDS011;146;53.448;10.228;2022-09-13T02:27:51;7.23;;;6.63;;
317;SDS011;146;53.448;10.228;2022-09-13T02:30:23;7.57;;;6.97;;
317;SDS011;146;53.448;10.228;2022-09-13T02:32:55;7.10;;;6.60;;
317;SDS011;146;53.448;10.228;2022-09-13T02:35:33;7.07;;;6.27;;
317;SDS011;146;53.448;10.228;2022-09-13T02:38:08;7.30;;;6.70;;
317;SDS011;146;53.448;10.228;2022-09-13T02:40:42;6.80;;;6.27;;
317;SDS011;146;53.448;10.228;2022-09-13T02:43:19;7.73;;;6.87;;
317;SDS011;146;53.448;10.228;2022-09-13T02:45:55;6.83;;;6.23;;
317;SDS011;146;53.448;10.228;2022-09-13T02:48:35;5.97;;;5.53;;
317;SDS011;146;53.448;10.228;2022-09-13T02:51:10;6.47;;;5.97;;
317;SDS011;146;53.448;10.228;2022-09-13T02:53:44;6.90;;;6.30;;
317;SDS011;146;53.448;10.228;2022-09-13T02:56:20;7.20;;;6.33;;
317;SDS011;146;53.448;10.228;2022-09-13T02:58:55;7.17;;;6.47;;
317;SDS011;146;53.448;10.228;2022-09-13T03:01:31;6.93;;;6.40;;
317;SDS011;146;53.448;10.228;2022-09-13T03:04:05;6.27;;;5.67;;
317;SDS011;146;53.448;10.228;2022-09-13T03:06:36;7.77;;;6.97;;
317;SDS011;146;53.448;10.228;2022-09-13T03:09:11;7.27;;;6.70;;
317;SDS011;146;53.448;10.228;2022-09-13T03:11:55;7.00;;;6.50;;
317;SDS011;146;53.448;10.228;2022-09-13T03:14:51;7.83;;;7.13;;
317;SDS011;146;53.448;10.228;2022-09-13T03:17:38;8.07;;;7.37;;
317;SDS011;146;53.448;10.228;2022-09-13T03:20:29;7.83;;;7.13;;
317;SDS011;146;53.448;10.228;2022-09-13T03:23:18;9.77;;;7.37;;
317;SDS011;146;53.448;10.228;2022-09-13T03:25:59;8.43;;;7.63;;
317;SDS011;146;53.448;10.228;2022-09-13T03:28:39;10.50;;;8.40;;
317;SDS011;146;53.448;10.228;2022-09-13T03:31:15;8.87;;;6.90;;
317;SDS011;146;53.448;10.228;2022-09-13T03:33:48;8.10;;;7.40;;
317;SDS011;146;53.448;10.228;2022-09-13T03:36:23;8.30;;;7.50;;
317;SDS011;146;53.448;10.228;2022-09-13T03:38:54;7.43;;;6.70;;
317;SDS011;146;53.448;10.228;2022-09-13T03:41:31;8.20;;;7.40;;
317;SDS011;146;53.448;10.228;2022-09-13T03:44:05;9.07;;;8.17;;
317;SDS011;146;53.448;10.228;2022-09-13T03:46:37;8.97;;;8.17;;
317;SDS011;146;53.448;10.228;2022-09-13T03:49:07;9.60;;;8.70;;
317;SDS011;146;53.448;10.228;2022-09-13T03:51:38;8.83;;;8.10;;
317;SDS011;146;53.448;10.228;2022-09-13T03:54:06;9.10;;;8.30;;
317;SDS011;146;53.448;10.228;2022-09-13T03:56:36;8.43;;;7.60;;
317;SDS011;146;53.448;10.228;2022-09-13T03:59:03;9.03;;;8.10;;
317;SDS011;146;53.448;10.228;2022-09-13T04:01:30;9.60;;;8.80;;
317;SDS011;146;53.448;10.228;2022-09-13T04:03:57;8.33;;;7.63;;
317;SDS011;146;53.448;10.228;2022-09-13T04:06:24;8.53;;;7.70;;
317;SDS011;146;53.448;10.228;2022-09-13T04:08:52;8.47;;;7.77;;
317;SDS011;146;53.448;10.228;2022-09-13T04:11:21;8.50;;;7.70;;
317;SDS011;146;53.448;10.228;2022-09-13T04:13:48;8.90;;;8.07;;
317;SDS011;146;53.448;10.228;2022-09-13T04:16:15;9.63;;;8.73;;
317;SDS011;146;53.448;10.228;2022-09-13T04:18:42;9.17;;;8.27;;
317;SDS011;146;53.448;10.228;2022-09-13T04:21:09;9.40;;;8.60;;
317;SDS011;146;53.448;10.228;2022-09-13T04:23:36;9.10;;;8.30;;
317;SDS011;146;53.448;10.228;2022-09-13T04:26:08;10.67;;;8.90;;
317;SDS011;146;53.448;10.228;2022-09-13T04:28:35;8.80;;;8.00;;
317;SDS011;146;53.448;10.228;2022-09-13T04:31:02;8.67;;;7.87;;
317;SDS011;146;53.448;10.228;2022-09-13T04:33:29;8.60;;;7.80;;
317;SDS011;146;53.448;10.228;2022-09-13T04:35:56;8.87;;;8.07;;
317;SDS011;146;53.448;10.228;2022-09-13T04:38:24;9.20;;;8.30;;
317;SDS011;146;53.448;10.228;2022-09-13T04:40:52;8.47;;;7.67;;
317;SDS011;146;53.448;10.228;2022-09-13T04:43:20;8.93;;;8.13;;
317;SDS011;146;53.448;10.228;2022-09-13T04:45:48;9.67;;;8.77;;
317;SDS011;146;53.448;10.228;2022-09-13T04:48:14;10.10;;;9.20;;
317;SDS011;146;53.448;10.228;2022-09-13T04:50:42;10.27;;;9.23;;
317;SDS011;146;53.448;10.228;2022-09-13T04:53:09;9.60;;;8.60;;
317;SDS011;146;53.448;10.228;2022-09-13T04:55:36;10.33;;;9.30;;
317;SDS011;146;53.448;10.228;2022-09-13T04:58:30;9.40;;;8.50;;
317;SDS011;146;53.448;10.228;2022-09-13T05:01:00;9.33;;;8.43;;
317;SDS011;146;53.448;10.228;2022-09-13T05:03:28;9.83;;;8.83;;
317;SDS011;146;53.448;10.228;2022-09-13T05:05:59;11.30;;;10.07;;
317;SDS011;146;53.448;10.228;2022-09-13T05:08:27;9.83;;;8.70;;
317;SDS011;146;53.448;10.228;2022-09-13T05:10:54;9.47;;;8.57;;
317;SDS011;146;53.448;10.228;2022-09-13T05:13:20;9.97;;;9.07;;
317;SDS011;146;53.448;10.228;2022-09-13T05:15:48;11.60;;;9.57;;
317;SDS011;146;53.448;10.228;2022-09-13T05:18:15;11.93;;;10.63;;
317;SDS011;146;53.448;10.228;2022-09-13T05:20:42;11.17;;;10.17;;
317;SDS011;146;53.448;10.228;2022-09-13T05:23:09;11.17;;;9.17;;
317;SDS011;146;53.448;10.228;2022-09-13T05:25:35;10.83;;;9.70;;
317;SDS011;146;53.448;10.228;2022-09-13T05:28:02;11.63;;;10.37;;
317;SDS011;146;53.448;10.228;2022-09-13T05:30:29;10.20;;;9.30;;
317;SDS011;146;53.448;10.228;2022-09-13T05:32:57;11.80;;;10.70;;
317;SDS011;146;53.448;10.228;2022-09-13T05:35:24;11.90;;;10.30;;
317;SDS011;146;53.448;10.228;2022-09-13T05:37:51;13.10;;;10.97;;
317;SDS011;146;53.448;10.228;2022-09-13T05:40:17;13.97;;;11.83;;
317;SDS011;146;53.448;10.228;2022-09-13T05:42:44;13.43;;;11.60;;
317;SDS011;146;53.448;10.228;2022-09-13T05:45:11;12.07;;;10.87;;
317;SDS011;146;53.448;10.228;2022-09-13T05:47:38;11.10;;;9.20;;
317;SDS011;146;53.448;10.228;2022-09-13T05:50:06;12.67;;;11.47;;
317;SDS011;146;53.448;10.228;2022-09-13T05:52:34;15.00;;;11.93;;
317;SDS011;146;53.448;10.228;2022-09-13T05:55:01;12.13;;;10.90;;
317;SDS011;146;53.448;10.228;2022-09-13T05:57:27;13.90;;;11.07;;
317;SDS011;146;53.448;10.228;2022-09-13T05:59:54;12.10;;;10.70;;
317;SDS011;146;53.448;10.228;2022-09-13T06:02:21;12.30;;;11.20;;
317;SDS011;146;53.448;10.228;2022-09-13T06:04:48;12.57;;;11.27;;
317;SDS011;146;53.448;10.228;2022-09-13T06:07:17;14.03;;;12.43;;
317;SDS011;146;53.448;10.228;2022-09-13T06:09:44;16.20;;;12.93;;
317;SDS011;146;53.448;10.228;2022-09-13T06:12:10;15.90;;;14.20;;
317;SDS011;146;53.448;10.228;2022-09-13T06:14:37;14.53;;;12.97;;
317;SDS011;146;53.448;10.228;2022-09-13T06:17:04;13.67;;;12.27;;
317;SDS011;146;53.448;10.228;2022-09-13T06:19:31;14.60;;;12.33;;
317;SDS011;146;53.448;10.228;2022-09-13T06:21:58;15.83;;;14.17;;
317;SDS011;146;53.448;10.228;2022-09-13T06:24:26;15.53;;;14.03;;
317;SDS011;146;53.448;10.228;2022-09-13T06:26:52;17.17;;;14.87;;
317;SDS011;146;53.448;10.228;2022-09-13T06:29:19;21.53;;;14.70;;
317;SDS011;146;53.448;10.228;2022-09-13T06:31:46;15.43;;;13.80;;
317;SDS011;146;53.448;10.228;2022-09-13T06:34:12;15.53;;;13.93;;
317;SDS011;146;53.448;10.228;2022-09-13T06:36:41;19.60;;;14.97;;
317;SDS011;146;53.448;10.228;2022-09-13T06:39:08;16.90;;;14.93;;
317;SDS011;146;53.448;10.228;2022-09-13T06:41:36;16.30;;;14.60;;
317;SDS011;146;53.448;10.228;2022-09-13T06:44:03;16.10;;;14.07;;
317;SDS011;146;53.448;10.228;2022-09-13T06:46:31;16.63;;;14.80;;
317;SDS011;146;53.448;10.228;2022-09-13T06:48:59;18.10;;;15.50;;
317;SDS011;146;53.448;10.228;2022-09-13T06:51:27;18.30;;;14.87;;
317;SDS011;146;53.448;10.228;2022-09-13T06:53:55;17.23;;;15.30;;
317;SDS011;146;53.448;10.228;2022-09-13T06:56:22;18.37;;;15.27;;
317;SDS011;146;53.448;10.228;2022-09-13T06:58:55;17.93;;;16.00;;
317;SDS011;146;53.448;10.228;2022-09-13T07:01:24;18.77;;;16.10;;
317;SDS011;146;53.448;10.228;2022-09-13T07:03:53;17.37;;;15.63;;
317;SDS011;146;53.448;10.228;2022-09-13T07:06:23;19.20;;;16.13;;
317;SDS011;146;53.448;10.228;2022-09-13T07:08:52;18.80;;;16.57;;
317;SDS011;146;53.448;10.228;2022-09-13T07:11:20;21.40;;;16.53;;
317;SDS011;146;53.448;10.228;2022-09-13T07:13:49;22.90;;;15.70;;
317;SDS011;146;53.448;10.228;2022-09-13T07:16:19;21.63;;;16.27;;
317;SDS011;146;53.448;10.228;2022-09-13T07:18:49;17.87;;;15.67;;
317;SDS011;146;53.448;10.228;2022-09-13T07:21:16;18.63;;;15.80;;
317;SDS011;146;53.448;10.228;2022-09-13T07:23:43;17.67;;;14.50;;
317;SDS011;146;53.448;10.228;2022-09-13T07:26:10;18.00;;;15.20;;
317;SDS011;146;53.448;10.228;2022-09-13T07:28:37;16.30;;;14.37;;
317;SDS011;146;53.448;10.228;2022-09-13T07:31:06;17.03;;;15.23;;
317;SDS011;146;53.448;10.228;2022-09-13T07:33:35;19.00;;;13.97;;
317;SDS011;146;53.448;10.228;2022-09-13T07:36:03;18.37;;;14.97;;
317;SDS011;146;53.448;10.228;2022-09-13T07:38:32;15.93;;;14.40;;
317;SDS011;146;53.448;10.228;2022-09-13T07:41:02;16.40;;;14.70;;
317;SDS011;146;53.448;10.228;2022-09-13T07:43:53;18.37;;;13.63;;
317;SDS011;146;53.448;10.228;2022-09-13T07:46:22;18.33;;;13.80;;
317;SDS011;146;53.448;10.228;2022-09-13T07:48:52;16.57;;;14.03;;
317;SDS011;146;53.448;10.228;2022-09-13T07:51:21;15.03;;;13.43;;
317;SDS011;146;53.448;10.228;2022-09-13T07:53:50;16.03;;;13.63;;
317;SDS011;146;53.448;10.228;2022-09-13T07:56:21;15.43;;;13.80;;
317;SDS011;146;53.448;10.228;2022-09-13T07:58:50;14.20;;;12.43;;
317;SDS011;146;53.448;10.228;2022-09-13T08:01:25;12.77;;;11.47;;
317;SDS011;146;53.448;10.228;2022-09-13T08:03:55;12.90;;;11.53;;
317;SDS011;146;53.448;10.228;2022-09-13T08:06:23;13.10;;;10.47;;
317;SDS011;146;53.448;10.228;2022-09-13T08:09:00;13.40;;;12.10;;
317;SDS011;146;53.448;10.228;2022-09-13T08:11:28;11.33;;;10.00;;
317;SDS011;146;53.448;10.228;2022-09-13T08:13:56;9.53;;;8.63;;
317;SDS011;146;53.448;10.228;2022-09-13T08:16:28;10.37;;;8.70;;
317;SDS011;146;53.448;10.228;2022-09-13T08:19:02;12.47;;;10.30;;
317;SDS011;146;53.448;10.228;2022-09-13T08:21:31;9.80;;;8.90;;
317;SDS011;146;53.448;10.228;2022-09-13T08:23:59;11.33;;;7.53;;
317;SDS011;146;53.448;10.228;2022-09-13T08:26:45;6.43;;;5.73;;
317;SDS011;146;53.448;10.228;2022-09-13T08:29:16;6.87;;;6.17;;
317;SDS011;146;53.448;10.228;2022-09-13T08:31:43;7.20;;;6.50;;
317;SDS011;146;53.448;10.228;2022-09-13T08:34:16;9.97;;;6.80;;
317;SDS011;146;53.448;10.228;2022-09-13T08:36:49;8.13;;;7.30;;
317;SDS011;146;53.448;10.228;2022-09-13T08:39:22;7.87;;;7.07;;
317;SDS011;146;53.448;10.228;2022-09-13T08:44:45;8.47;;;7.37;;
317;SDS011;146;53.448;10.228;2022-09-13T08:47:30;10.03;;;7.43;;
317;SDS011;146;53.448;10.228;2022-09-13T08:50:07;6.27;;;5.67;;
317;SDS011;146;53.448;10.228;2022-09-13T08:52:44;8.33;;;6.50;;
317;SDS011;146;53.448;10.228;2022-09-13T08:55:35;7.47;;;6.80;;
317;SDS011;146;53.448;10.228;2022-09-13T08:58:11;7.00;;;5.73;;
317;SDS011;146;53.448;10.228;2022-09-13T09:01:04;6.63;;;5.33;;
317;SDS011;146;53.448;10.228;2022-09-13T09:03:40;5.70;;;5.20;;
317;SDS011;146;53.448;10.228;2022-09-13T09:06:18;5.17;;;4.67;;
317;SDS011;146;53.448;10.228;2022-09-13T09:08:47;6.90;;;4.73;;
317;SDS011;146;53.448;10.228;2022-09-13T09:11:20;4.30;;;3.90;;
317;SDS011;146;53.448;10.228;2022-09-13T09:13:59;6.87;;;4.50;;
317;SDS011;146;53.448;10.228;2022-09-13T09:16:39;4.33;;;3.97;;
317;SDS011;146;53.448;10.228;2022-09-13T09:22:31;5.90;;;5.10;;
317;SDS011;146;53.448;10.228;2022-09-13T09:31:02;4.10;;;3.23;;
317;SDS011;146;53.448;10.228;2022-09-13T09:33:47;8.70;;;3.30;;
317;SDS011;146;53.448;10.228;2022-09-13T09:36:31;3.67;;;3.37;;
317;SDS011;146;53.448;10.228;2022-09-13T09:39:12;4.87;;;3.57;;
317;SDS011;146;53.448;10.228;2022-09-13T09:41:55;3.83;;;3.10;;
317;SDS011;146;53.448;10.228;2022-09-13T09:44:26;4.03;;;3.27;;
317;SDS011;146;53.448;10.228;2022-09-13T09:53:51;2.50;;;2.13;;
317;SDS011;146;53.448;10.228;2022-09-13T09:59:36;3.50;;;2.37;;
317;SDS011;146;53.448;10.228;2022-09-13T10:02:10;2.00;;;1.60;;
317;SDS011;146;53.448;10.228;2022-09-13T10:04:55;1.97;;;1.50;;
317;SDS011;146;53.448;10.228;2022-09-13T10:07:24;1.10;;;1.00;;
317;SDS011;146;53.448;10.228;2022-09-13T10:10:04;1.47;;;1.10;;
317;SDS011;146;53.448;10.228;2022-09-13T10:12:34;2.40;;;1.67;;
317;SDS011;146;53.448;10.228;2022-09-13T10:15:09;1.50;;;1.40;;
317;SDS011;146;53.448;10.228;2022-09-13T10:17:42;1.90;;;1.23;;
317;SDS011;146;53.448;10.228;2022-09-13T10:20:25;1.37;;;0.93;;
317;SDS011;146;53.448;10.228;2022-09-13T10:23:08;3.20;;;1.20;;
317;SDS011;146;53.448;10.228;2022-09-13T10:25:37;1.27;;;0.90;;
317;SDS011;146;53.448;10.228;2022-09-13T10:28:09;2.10;;;1.10;;
317;SDS011;146;53.448;10.228;2022-09-13T10:30:40;2.50;;;0.90;;
317;SDS011;146;53.448;10.228;2022-09-13T10:33:12;1.17;;;0.80;;
317;SDS011;146;53.448;10.228;2022-09-13T10:35:53;2.30;;;1.03;;
317;SDS011;146;53.448;10.228;2022-09-13T10:38:23;2.77;;;0.80;;
317;SDS011;146;53.448;10.228;2022-09-13T10:40:53;1.90;;;1.10;;
317;SDS011;146;53.448;10.228;2022-09-13T10:43:22;2.57;;;1.10;;
317;SDS011;146;53.448;10.228;2022-09-13T10:45:52;3.40;;;0.93;;
317;SDS011;146;53.448;10.228;2022-09-13T10:48:19;0.80;;;0.80;;
317;SDS011;146;53.448;10.228;2022-09-13T10:51:00;3.90;;;1.33;;
317;SDS011;146;53.448;10.228;2022-09-13T10:58:11;1.20;;;1.10;;
317;SDS011;146;53.448;10.228;2022-09-13T11:00:43;1.23;;;0.83;;
317;SDS011;146;53.448;10.228;2022-09-13T11:03:29;6.07;;;2.70;;
317;SDS011;146;53.448;10.228;2022-09-13T11:06:10;4.00;;;0.70;;
317;SDS011;146;53.448;10.228;2022-09-13T11:08:47;3.67;;;1.43;;
317;SDS011;146;53.448;10.228;2022-09-13T11:11:21;2.60;;;1.50;;
317;SDS011;146;53.448;10.228;2022-09-13T11:13:57;2.40;;;0.93;;
317;SDS011;146;53.448;10.228;2022-09-13T11:16:36;2.63;;;0.83;;
317;SDS011;146;53.448;10.228;2022-09-13T11:19:16;3.30;;;1.47;;
317;SDS011;146;53.448;10.228;2022-09-13T11:22:20;1.40;;;1.10;;
317;SDS011;146;53.448;10.228;2022-09-13T11:24:56;2.03;;;0.97;;
317;SDS011;146;53.448;10.228;2022-09-13T11:27:34;1.90;;;0.90;;
317;SDS011;146;53.448;10.228;2022-09-13T11:30:14;2.97;;;2.00;;
317;SDS011;146;53.448;10.228;2022-09-13T11:32:58;1.87;;;1.10;;
317;SDS011;146;53.448;10.228;2022-09-13T11:35:46;2.27;;;0.80;;
317;SDS011;146;53.448;10.228;2022-09-13T11:38:23;1.73;;;0.90;;
317;SDS011;146;53.448;10.228;2022-09-13T11:41:02;1.63;;;1.50;;
317;SDS011;146;53.448;10.228;2022-09-13T11:43:49;3.23;;;0.70;;
317;SDS011;146;53.448;10.228;2022-09-13T11:46:29;1.10;;;0.80;;
317;SDS011;146;53.448;10.228;2022-09-13T11:52:01;1.17;;;0.80;;
317;SDS011;146;53.448;10.228;2022-09-13T11:54:39;1.63;;;0.90;;
317;SDS011;146;53.448;10.228;2022-09-13T11:57:18;4.67;;;1.27;;
317;SDS011;146;53.448;10.228;2022-09-13T11:59:50;3.93;;;1.20;;
317;SDS011;146;53.448;10.228;2022-09-13T12:02:22;0.63;;;0.60;;
317;SDS011;146;53.448;10.228;2022-09-13T12:04:55;0.70;;;0.70;;
317;SDS011;146;53.448;10.228;2022-09-13T12:07:26;2.63;;;0.83;;
317;SDS011;146;53.448;10.228;2022-09-13T12:09:59;1.07;;;0.87;;
317;SDS011;146;53.448;10.228;2022-09-13T12:12:32;1.30;;;0.83;;
317;SDS011;146;53.448;10.228;2022-09-13T12:15:02;3.27;;;1.30;;
317;SDS011;146;53.448;10.228;2022-09-13T12:17:34;2.73;;;0.80;;
317;SDS011;146;53.448;10.228;2022-09-13T12:20:10;3.27;;;1.23;;
317;SDS011;146;53.448;10.228;2022-09-13T12:22:40;3.17;;;1.20;;
317;SDS011;146;53.448;10.228;2022-09-13T12:25:14;2.37;;;0.70;;
317;SDS011;146;53.448;10.228;2022-09-13T12:27:47;7.57;;;1.20;;
317;SDS011;146;53.448;10.228;2022-09-13T12:30:20;2.53;;;0.87;;
317;SDS011;146;53.448;10.228;2022-09-13T12:32:48;0.57;;;0.57;;
317;SDS011;146;53.448;10.228;2022-09-13T12:35:21;2.20;;;0.87;;
317;SDS011;146;53.448;10.228;2022-09-13T12:38:00;2.00;;;0.80;;
317;SDS011;146;53.448;10.228;2022-09-13T12:40:59;1.80;;;1.00;;
317;SDS011;146;53.448;10.228;2022-09-13T12:43:49;1.87;;;0.70;;
317;SDS011;146;53.448;10.228;2022-09-13T12:46:53;1.87;;;0.90;;
317;SDS011;146;53.448;10.228;2022-09-13T12:49:38;3.60;;;1.37;;
317;SDS011;146;53.448;10.228;2022-09-13T12:52:23;1.50;;;0.93;;
317;SDS011;146;53.448;10.228;2022-09-13T12:55:11;1.27;;;1.00;;
317;SDS011;146;53.448;10.228;2022-09-13T12:57:58;2.33;;;0.83;;
317;SDS011;146;53.448;10.228;2022-09-13T13:00:35;1.77;;;0.77;;
317;SDS011;146;53.448;10.228;2022-09-13T13:03:11;1.20;;;1.10;;
317;SDS011;146;53.448;10.228;2022-09-13T13:05:41;2.17;;;0.90;;
317;SDS011;146;53.448;10.228;2022-09-13T13:08:21;2.10;;;1.17;;
317;SDS011;146;53.448;10.228;2022-09-13T13:11:01;2.23;;;0.90;;
317;SDS011;146;53.448;10.228;2022-09-13T13:13:32;3.23;;;1.20;;
317;SDS011;146;53.448;10.228;2022-09-13T13:16:21;1.50;;;0.90;;
317;SDS011;146;53.448;10.228;2022-09-13T13:18:50;2.03;;;0.93;;
317;SDS011;146;53.448;10.228;2022-09-13T13:21:28;1.00;;;0.83;;
317;SDS011;146;53.448;10.228;2022-09-13T13:33:21;1.20;;;1.00;;
317;SDS011;146;53.448;10.228;2022-09-13T13:35:52;3.47;;;1.70;;
317;SDS011;146;53.448;10.228;2022-09-13T13:41:37;1.33;;;0.97;;
317;SDS011;146;53.448;10.228;2022-09-13T13:50:19;1.93;;;1.20;;
317;SDS011;146;53.448;10.228;2022-09-13T13:52:51;3.27;;;1.20;;
317;SDS011;146;53.448;10.228;2022-09-13T13:55:28;2.87;;;1.20;;
317;SDS011;146;53.448;10.228;2022-09-13T13:58:09;3.07;;;1.47;;
317;SDS011;146;53.448;10.228;2022-09-13T14:00:49;2.87;;;0.80;;
317;SDS011;146;53.448;10.228;2022-09-13T14:03:20;1.30;;;1.20;;
317;SDS011;146;53.448;10.228;2022-09-13T14:05:53;5.50;;;1.50;;
317;SDS011;146;53.448;10.228;2022-09-13T14:08:30;1.90;;;1.33;;
317;SDS011;146;53.448;10.228;2022-09-13T14:11:06;2.00;;;1.13;;
317;SDS011;146;53.448;10.228;2022-09-13T14:13:45;2.60;;;0.90;;
317;SDS011;146;53.448;10.228;2022-09-13T14:16:24;1.60;;;0.90;;
317;SDS011;146;53.448;10.228;2022-09-13T14:19:18;2.33;;;0.80;;
317;SDS011;146;53.448;10.228;2022-09-13T14:24:34;3.20;;;1.53;;
317;SDS011;146;53.448;10.228;2022-09-13T14:27:02;2.83;;;1.27;;
317;SDS011;146;53.448;10.228;2022-09-13T14:29:31;4.70;;;1.20;;
317;SDS011;146;53.448;10.228;2022-09-13T14:32:01;1.50;;;1.00;;
317;SDS011;146;53.448;10.228;2022-09-13T14:34:31;3.37;;;1.00;;
317;SDS011;146;53.448;10.228;2022-09-13T14:37:00;3.50;;;1.37;;
317;SDS011;146;53.448;10.228;2022-09-13T14:39:28;1.80;;;1.20;;
317;SDS011;146;53.448;10.228;2022-09-13T14:41:58;2.73;;;1.40;;
317;SDS011;146;53.448;10.228;2022-09-13T14:44:28;2.70;;;1.30;;
317;SDS011;146;53.448;10.228;2022-09-13T14:47:00;2.00;;;1.37;;
317;SDS011;146;53.448;10.228;2022-09-13T14:49:33;1.47;;;1.03;;
317;SDS011;146;53.448;10.228;2022-09-13T14:52:04;3.07;;;1.40;;
317;SDS011;146;53.448;10.228;2022-09-13T14:54:36;4.30;;;1.63;;
317;SDS011;146;53.448;10.228;2022-09-13T14:57:05;2.73;;;1.53;;
317;SDS011;146;53.448;10.228;2022-09-13T14:59:35;2.23;;;1.30;;
317;SDS011;146;53.448;10.228;2022-09-13T15:02:15;3.00;;;1.20;;
317;SDS011;146;53.448;10.228;2022-09-13T15:04:47;0.90;;;0.90;;
317;SDS011;146;53.448;10.228;2022-09-13T15:07:19;2.10;;;1.20;;
317;SDS011;146;53.448;10.228;2022-09-13T15:09:48;4.30;;;1.50;;
317;SDS011;146;53.448;10.228;2022-09-13T15:12:22;1.37;;;1.00;;
317;SDS011;146;53.448;10.228;2022-09-13T15:17:53;3.77;;;2.53;;
317;SDS011;146;53.448;10.228;2022-09-13T15:20:22;3.43;;;1.30;;
317;SDS011;146;53.448;10.228;2022-09-13T15:22:50;3.60;;;1.50;;
317;SDS011;146;53.448;10.228;2022-09-13T15:25:19;5.90;;;1.30;;
317;SDS011;146;53.448;10.228;2022-09-13T15:27:48;3.23;;;1.77;;
317;SDS011;146;53.448;10.228;2022-09-13T15:30:20;2.80;;;1.10;;
317;SDS011;146;53.448;10.228;2022-09-13T15:32:48;5.17;;;1.47;;
317;SDS011;146;53.448;10.228;2022-09-13T15:35:30;1.90;;;0.93;;
317;SDS011;146;53.448;10.228;2022-09-13T15:38:01;1.80;;;1.13;;
317;SDS011;146;53.448;10.228;2022-09-13T15:40:43;3.17;;;1.63;;
317;SDS011;146;53.448;10.228;2022-09-13T15:43:11;1.50;;;1.23;;
317;SDS011;146;53.448;10.228;2022-09-13T15:45:38;1.23;;;0.90;;
317;SDS011;146;53.448;10.228;2022-09-13T15:48:09;3.23;;;1.60;;
317;SDS011;146;53.448;10.228;2022-09-13T15:54:32;4.13;;;1.50;;
317;SDS011;146;53.448;10.228;2022-09-13T15:57:00;2.63;;;1.43;;
317;SDS011;146;53.448;10.228;2022-09-13T15:59:27;1.90;;;1.47;;
317;SDS011;146;53.448;10.228;2022-09-13T16:01:53;2.67;;;1.37;;
317;SDS011;146;53.448;10.228;2022-09-13T16:04:20;1.90;;;1.37;;
317;SDS011;146;53.448;10.228;2022-09-13T16:06:47;1.40;;;1.30;;
317;SDS011;146;53.448;10.228;2022-09-13T16:09:15;4.60;;;1.27;;
317;SDS011;146;53.448;10.228;2022-09-13T16:11:45;2.93;;;1.90;;
317;SDS011;146;53.448;10.228;2022-09-13T16:14:13;1.70;;;1.47;;
317;SDS011;146;53.448;10.228;2022-09-13T16:16:41;2.10;;;1.10;;
317;SDS011;146;53.448;10.228;2022-09-13T16:19:09;9.73;;;2.33;;
317;SDS011;146;53.448;10.228;2022-09-13T16:21:39;1.30;;;1.20;;
317;SDS011;146;53.448;10.228;2022-09-13T16:24:06;3.03;;;1.47;;
317;SDS011;146;53.448;10.228;2022-09-13T16:26:33;1.50;;;1.23;;
317;SDS011;146;53.448;10.228;2022-09-13T16:29:01;3.90;;;1.30;;
317;SDS011;146;53.448;10.228;2022-09-13T16:31:28;1.90;;;1.50;;
317;SDS011;146;53.448;10.228;2022-09-13T16:33:55;6.87;;;1.63;;
317;SDS011;146;53.448;10.228;2022-09-13T16:36:22;3.77;;;1.50;;
317;SDS011;146;53.448;10.228;2022-09-13T16:38:48;5.20;;;1.07;;
317;SDS011;146;53.448;10.228;2022-09-13T16:41:15;3.10;;;1.00;;
317;SDS011;146;53.448;10.228;2022-09-13T16:43:42;4.93;;;1.60;;
317;SDS011;146;53.448;10.228;2022-09-13T16:46:12;4.77;;;1.27;;
317;SDS011;146;53.448;10.228;2022-09-13T16:48:39;4.93;;;1.77;;
317;SDS011;146;53.448;10.228;2022-09-13T16:51:07;1.70;;;1.10;;
317;SDS011;146;53.448;10.228;2022-09-13T16:53:35;3.43;;;1.40;;
317;SDS011;146;53.448;10.228;2022-09-13T16:56:04;2.03;;;1.20;;
317;SDS011;146;53.448;10.228;2022-09-13T16:58:31;2.10;;;1.07;;
317;SDS011;146;53.448;10.228;2022-09-13T17:01:02;2.60;;;1.30;;
317;SDS011;146;53.448;10.228;2022-09-13T17:03:31;5.00;;;1.40;;